Time;durP1;ratioP1;P1;durP2;ratioP2;P2;SDS_P1;SDS_P2;PMS_P1;PMS_P2;Temp;Humidity;BMP_temperature;BMP_pressure;BME280_temperature;BME280_humidity;BME280_pressure;Samples;Min_cycle;Max_cycle;Signal;HPM_P1;HPM_P2
2021/12/16 01:57:10;;;;;;;1.95;1.40;;;;;;;19.83;30.52;99061.66;5130423;27;20096;-62
2021/12/16 01:59:38;;;;;;;2.30;1.25;;;;;;;19.80;30.31;99067.41;5130600;27;20066;-62
2021/12/16 02:05:27;;;;;;;2.35;1.45;;;;;;;19.71;30.44;99071.25;5106928;27;20043;-62
2021/12/16 02:10:36;;;;;;;2.13;1.40;;;;;;;19.65;30.57;99054.06;5130632;27;20031;-62
2021/12/16 02:35:59;;;;;;;1.77;1.17;;;;;;;19.46;30.40;98996.53;5130113;28;20146;-62
2021/12/16 02:38:28;;;;;;;2.50;0.93;;;;;;;19.46;30.55;98987.63;5129696;28;20039;-62
2021/12/16 02:40:55;;;;;;;1.25;0.93;;;;;;;19.44;30.54;98966.38;5129574;27;20046;-62
2021/12/16 02:44:12;;;;;;;1.25;0.93;;;;;;;19.45;30.09;98968.03;5127137;28;20059;-62
2021/12/16 02:48:42;;;;;;;1.58;0.88;;;;;;;19.44;30.36;98957.47;5115827;27;20063;-63
2021/12/16 02:51:12;;;;;;;0.90;0.73;;;;;;;19.48;30.60;98964.94;5115776;28;20066;-63
2021/12/16 02:53:51;;;;;;;3.30;0.90;;;;;;;19.46;30.65;98958.97;5116058;28;20077;-63
2021/12/16 02:56:17;;;;;;;1.52;1.00;;;;;;;19.48;30.80;98967.63;5116176;28;20067;-63
2021/12/16 02:58:46;;;;;;;0.75;0.60;;;;;;;19.49;30.88;98968.47;5115594;28;20478;-63
2021/12/16 03:01:30;;;;;;;0.90;0.80;;;;;;;19.46;30.90;98969.69;5115706;28;20095;-62
2021/12/16 03:03:58;;;;;;;1.67;0.80;;;;;;;19.44;31.02;98954.78;5115436;28;20387;-63
2021/12/16 03:06:25;;;;;;;2.58;0.65;;;;;;;19.42;30.92;98948.78;5115731;28;20103;-63
2021/12/16 03:08:51;;;;;;;1.08;0.70;;;;;;;19.42;30.96;98948.78;5115313;28;20393;-63
2021/12/16 03:11:23;;;;;;;1.52;1.10;;;;;;;19.38;30.86;98926.88;5115604;28;20031;-63
2021/12/16 03:14:57;;;;;;;1.00;0.80;;;;;;;19.40;30.91;98916.78;5115414;28;20054;-64
2021/12/16 03:20:10;;;;;;;1.58;0.90;;;;;;;19.41;30.59;98915.78;5105954;28;20043;-63
2021/12/16 03:22:45;;;;;;;1.45;0.88;;;;;;;19.42;30.92;98927.31;5092224;28;20043;-63
2021/12/16 03:33:44;;;;;;;0.95;0.70;;;;;;;19.38;31.13;98923.38;5115704;28;20041;-63
2021/12/16 03:36:08;;;;;;;0.88;0.77;;;;;;;19.39;31.29;98903.59;5114578;28;20052;-63
2021/12/16 03:38:37;;;;;;;3.35;0.93;;;;;;;19.39;31.14;98896.34;5114589;28;20152;-63
2021/12/16 03:41:05;;;;;;;1.85;0.80;;;;;;;19.39;31.26;98892.84;5114772;28;20035;-64
2021/12/16 03:43:33;;;;;;;1.05;0.63;;;;;;;19.36;31.18;98886.84;5115038;28;20167;-63
2021/12/16 03:48:52;;;;;;;1.55;0.90;;;;;;;19.34;31.21;98894.25;5115018;28;20122;-63
2021/12/16 03:51:32;;;;;;;2.40;0.80;;;;;;;19.35;31.13;98893.25;5114666;28;20039;-63
2021/12/16 03:54:13;;;;;;;1.35;0.90;;;;;;;19.36;31.16;98904.78;5114616;28;20042;-63
2021/12/16 03:56:40;;;;;;;4.25;0.80;;;;;;;19.34;31.22;98899.63;5114844;28;20116;-63
2021/12/16 03:59:08;;;;;;;1.30;0.73;;;;;;;19.36;31.14;98899.41;5113268;28;20031;-63
2021/12/16 04:01:34;;;;;;;1.27;0.85;;;;;;;19.36;31.11;98894.91;5114414;28;20032;-63
2021/12/16 04:04:00;;;;;;;0.80;0.70;;;;;;;19.36;31.09;98894.91;5114381;28;20038;-63
2021/12/16 04:06:29;;;;;;;1.20;0.95;;;;;;;19.38;31.23;98891.19;5114338;28;20019;-63
2021/12/16 04:08:56;;;;;;;1.35;0.77;;;;;;;19.38;31.25;98881.28;5114304;28;20027;-63
2021/12/16 04:11:27;;;;;;;0.73;0.55;;;;;;;19.38;31.08;98870.56;5114505;28;20038;-63
2021/12/16 04:13:59;;;;;;;0.90;0.65;;;;;;;19.36;31.24;98876.13;5113801;28;20032;-63
2021/12/16 04:16:34;;;;;;;0.98;0.70;;;;;;;19.36;31.16;98876.13;5113998;28;20043;-63
2021/12/16 04:19:07;;;;;;;1.00;0.63;;;;;;;19.39;31.15;98869.53;5109364;28;20031;-63
2021/12/16 04:21:33;;;;;;;1.52;0.60;;;;;;;19.38;31.07;98857.13;5093518;28;20035;-63
2021/12/16 04:23:59;;;;;;;1.90;0.77;;;;;;;19.38;31.21;98861.69;5093515;28;20032;-62
2021/12/16 04:26:28;;;;;;;1.30;0.70;;;;;;;19.39;31.09;98849.94;5093532;28;20028;-63
2021/12/16 04:28:56;;;;;;;0.93;0.70;;;;;;;19.36;31.14;98848.44;5093354;28;20028;-63
2021/12/16 04:31:22;;;;;;;1.10;0.80;;;;;;;19.38;31.32;98842.91;5093635;28;20031;-64
2021/12/16 04:33:47;;;;;;;1.55;0.93;;;;;;;19.38;31.09;98835.69;5093582;28;20447;-64
2021/12/16 04:36:14;;;;;;;1.13;0.80;;;;;;;19.39;31.25;98837.34;5093196;28;20079;-63
2021/12/16 04:38:42;;;;;;;1.50;0.70;;;;;;;19.38;31.25;98833.00;5093328;28;20494;-64
2021/12/16 04:41:11;;;;;;;1.75;0.60;;;;;;;19.38;31.42;98838.34;5112946;28;20028;-64
2021/12/16 04:43:40;;;;;;;2.38;0.93;;;;;;;19.39;31.26;98825.78;5113457;28;20606;-64
2021/12/16 04:46:11;;;;;;;1.70;1.08;;;;;;;19.38;31.33;98816.09;5113531;28;20023;-63
2021/12/16 04:48:39;;;;;;;0.90;0.55;;;;;;;19.38;31.33;98818.78;5114048;28;20031;-64
2021/12/16 04:51:06;;;;;;;1.05;0.68;;;;;;;19.39;31.29;98823.09;5113202;28;20451;-63
2021/12/16 04:53:31;;;;;;;0.82;0.68;;;;;;;19.39;31.16;98817.75;5113497;28;20131;-64
2021/12/16 04:55:58;;;;;;;2.30;0.80;;;;;;;19.40;31.39;98825.59;5113492;28;20486;-63
2021/12/16 04:58:23;;;;;;;1.65;0.70;;;;;;;19.40;31.46;98819.41;5113175;28;20069;-63
2021/12/16 05:00:50;;;;;;;0.82;0.60;;;;;;;19.40;31.48;98833.63;5113181;28;20055;-63
2021/12/16 05:03:15;;;;;;;1.88;0.80;;;;;;;19.42;31.45;98828.06;5112979;28;20043;-63
2021/12/16 05:05:41;;;;;;;1.15;0.70;;;;;;;19.41;31.45;98824.56;5113419;28;20259;-63
2021/12/16 05:08:07;;;;;;;1.60;0.40;;;;;;;19.42;31.44;98820.84;5113467;27;20019;-63
2021/12/16 05:10:32;;;;;;;1.45;0.85;;;;;;;19.45;31.46;98831.19;5112891;28;20433;-63
2021/12/16 05:13:00;;;;;;;1.05;0.80;;;;;;;19.47;31.39;98813.06;5112885;28;20130;-62
2021/12/16 05:15:31;;;;;;;0.93;0.50;;;;;;;19.48;31.44;98817.38;5113007;28;20042;-63
2021/12/16 05:18:00;;;;;;;0.70;0.57;;;;;;;19.48;31.43;98817.38;5112736;28;20155;-63
2021/12/16 05:20:30;;;;;;;0.93;0.55;;;;;;;19.48;31.61;98816.56;5113205;28;20035;-63
2021/12/16 05:28:24;;;;;;;0.45;0.40;;;;;;;19.47;31.55;98794.28;5112488;28;20054;-63
2021/12/16 05:30:51;;;;;;;1.45;0.45;;;;;;;19.49;31.70;98802.94;5113030;28;20047;-64
2021/12/16 05:33:18;;;;;;;2.05;0.60;;;;;;;19.51;31.74;98808.94;5112537;28;20508;-64
2021/12/16 05:35:44;;;;;;;2.05;0.55;;;;;;;19.50;31.88;98809.16;5112635;28;20051;-63
2021/12/16 05:38:11;;;;;;;0.57;0.50;;;;;;;19.50;31.64;98809.97;5112980;28;20046;-62
2021/12/16 05:40:37;;;;;;;0.80;0.57;;;;;;;19.50;31.95;98793.84;5112951;28;20031;-63
2021/12/16 05:43:08;;;;;;;0.80;0.40;;;;;;;19.53;31.66;98792.66;5112581;28;20036;-63
2021/12/16 05:45:35;;;;;;;0.95;0.52;;;;;;;19.52;31.68;98805.22;5112943;28;20107;-63
2021/12/16 05:48:03;;;;;;;0.93;0.50;;;;;;;19.54;31.69;98788.94;5112587;28;20040;-62
2021/12/16 05:50:32;;;;;;;1.35;0.80;;;;;;;19.53;31.72;98781.94;5113143;28;20035;-63
2021/12/16 05:52:58;;;;;;;1.13;0.82;;;;;;;19.52;31.76;98780.25;5112939;28;20496;-64
2021/12/16 05:55:24;;;;;;;1.77;0.60;;;;;;;19.54;31.73;98775.53;5112678;28;20031;-63
2021/12/16 05:57:50;;;;;;;1.02;0.60;;;;;;;19.55;31.53;98773.66;5111117;28;20035;-63
2021/12/16 06:00:29;;;;;;;1.02;0.50;;;;;;;19.56;31.74;98775.31;5112513;28;20490;-64
2021/12/16 06:02:54;;;;;;;1.17;0.80;;;;;;;19.55;31.56;98779.88;5112731;28;20039;-63
2021/12/16 06:05:20;;;;;;;1.33;0.60;;;;;;;19.57;31.58;98774.31;5112839;28;20043;-63
2021/12/16 06:07:46;;;;;;;0.85;0.60;;;;;;;19.55;31.42;98770.97;5111885;28;20035;-63
2021/12/16 06:10:49;;;;;;;0.88;0.70;;;;;;;19.57;31.38;98771.63;5111134;28;20038;-64
2021/12/16 06:13:00;;;;;;;0.98;0.45;;;;;;;19.55;31.66;98781.72;5112104;28;20065;-64
2021/12/16 06:28:49;;;;;;;1.27;0.60;;;;;;;19.56;31.55;98762.72;5115974;28;20039;-65
2021/12/16 06:31:15;;;;;;;0.65;0.55;;;;;;;19.56;31.65;98757.34;5116178;28;20127;-65
2021/12/16 06:33:41;;;;;;;1.45;0.90;;;;;;;19.59;31.57;98769.56;5116306;28;20438;-65
2021/12/16 06:36:07;;;;;;;1.42;0.60;;;;;;;19.58;31.58;98759.84;5113788;28;20078;-64
2021/12/16 06:38:32;;;;;;;0.63;0.50;;;;;;;19.60;31.59;98752.44;5095446;28;20063;-64
2021/12/16 06:40:58;;;;;;;0.90;0.52;;;;;;;19.60;31.73;98744.41;5111010;28;20486;-65
2021/12/16 06:43:24;;;;;;;1.30;0.57;;;;;;;19.62;31.76;98751.22;5114990;28;20048;-64
2021/12/16 06:45:52;;;;;;;1.77;0.65;;;;;;;19.62;31.69;98748.53;5116182;28;20042;-62
2021/12/16 06:48:24;;;;;;;1.00;0.70;;;;;;;19.61;31.52;98743.38;5115888;28;20405;-63
2021/12/16 06:50:55;;;;;;;1.45;0.55;;;;;;;19.62;31.73;98729.75;5115451;28;20406;-63
2021/12/16 06:53:28;;;;;;;1.70;0.73;;;;;;;19.62;31.70;98726.25;5094408;28;20047;-63
2021/12/16 06:56:34;;;;;;;1.52;0.60;;;;;;;19.62;31.50;98728.94;5095069;28;20123;-63
2021/12/16 06:59:03;;;;;;;1.30;0.63;;;;;;;19.62;31.69;98728.94;5107556;28;20039;-63
2021/12/16 07:02:01;;;;;;;1.20;0.70;;;;;;;19.62;31.65;98735.09;5114125;28;20032;-63
2021/12/16 07:04:18;;;;;;;2.78;0.50;;;;;;;19.64;31.70;98735.75;5095853;28;20075;-63
2021/12/16 07:06:44;;;;;;;1.65;0.80;;;;;;;19.65;31.32;98731.19;5095881;28;20036;-62
2021/12/16 07:09:17;;;;;;;0.82;0.60;;;;;;;19.66;31.49;98728.31;5107523;28;20092;-63
2021/12/16 07:11:52;;;;;;;1.33;0.73;;;;;;;19.65;31.77;98733.88;5115590;28;20393;-63
2021/12/16 07:14:22;;;;;;;0.95;0.60;;;;;;;19.66;31.69;98746.25;5101064;28;20462;-63
2021/12/16 07:16:52;;;;;;;1.58;0.90;;;;;;;19.67;31.56;98750.59;5094631;28;20035;-62
2021/12/16 07:19:18;;;;;;;1.40;0.55;;;;;;;19.68;31.62;98757.63;5094716;28;20032;-63
2021/12/16 07:21:44;;;;;;;2.05;0.70;;;;;;;19.70;31.65;98752.91;5094870;28;20085;-63
2021/12/16 07:24:14;;;;;;;1.00;0.55;;;;;;;19.73;31.62;98744.44;5106929;28;20031;-63
2021/12/16 07:26:40;;;;;;;0.88;0.57;;;;;;;19.73;31.65;98752.50;5115287;28;20044;-63
2021/12/16 07:29:07;;;;;;;0.75;0.60;;;;;;;19.73;31.54;98765.06;5109973;28;20541;-63
2021/12/16 07:31:36;;;;;;;0.98;0.60;;;;;;;19.72;31.68;98764.25;5099563;28;20042;-63
2021/12/16 07:34:03;;;;;;;1.77;1.00;;;;;;;19.73;31.74;98760.56;5094001;28;20059;-63
2021/12/16 07:36:30;;;;;;;2.35;0.75;;;;;;;19.72;31.58;98755.38;5093986;28;20038;-63
2021/12/16 07:38:56;;;;;;;0.70;0.50;;;;;;;19.71;31.61;98757.25;5094185;28;20504;-63
2021/12/16 07:41:25;;;;;;;1.75;0.60;;;;;;;19.71;31.65;98746.50;5094043;28;20032;-63
2021/12/16 07:44:24;;;;;;;1.90;0.60;;;;;;;19.72;31.74;98753.53;5093949;28;20032;-63
2021/12/16 07:46:45;;;;;;;1.33;0.77;;;;;;;19.72;31.50;98747.31;5097232;28;20043;-62
2021/12/16 07:49:15;;;;;;;1.52;0.65;;;;;;;19.75;31.71;98752.28;5097939;28;20074;-63
2021/12/16 07:51:41;;;;;;;2.90;1.05;;;;;;;19.75;31.67;98741.56;5094227;28;20040;-63
2021/12/16 07:54:08;;;;;;;0.68;0.60;;;;;;;19.76;31.51;98738.69;5093980;28;20138;-63
2021/12/16 07:56:34;;;;;;;1.63;0.70;;;;;;;19.77;31.64;98721.56;5094059;28;20028;-62
2021/12/16 07:59:00;;;;;;;2.63;0.70;;;;;;;19.79;31.73;98721.34;5093798;28;20047;-63
2021/12/16 08:01:26;;;;;;;1.13;0.70;;;;;;;19.81;31.78;98716.59;5093766;28;20032;-64
2021/12/16 08:03:52;;;;;;;1.15;0.93;;;;;;;19.81;31.63;98719.28;5092967;28;20115;-62
2021/12/16 08:06:22;;;;;;;1.48;0.75;;;;;;;19.82;31.62;98715.59;5094237;28;20107;-63
2021/12/16 08:08:53;;;;;;;0.90;0.70;;;;;;;19.83;31.61;98711.88;5107242;28;20424;-63
2021/12/16 08:11:19;;;;;;;0.73;0.57;;;;;;;19.84;31.73;98718.91;5114413;28;20084;-63
2021/12/16 08:13:44;;;;;;;1.10;0.73;;;;;;;19.86;31.87;98703.38;5104702;28;20046;-63
2021/12/16 08:16:10;;;;;;;3.42;0.80;;;;;;;19.87;31.68;98706.94;5093629;28;20032;-63
2021/12/16 08:18:36;;;;;;;1.45;0.50;;;;;;;19.86;31.68;98703.38;5094452;28;20032;-62
2021/12/16 08:21:04;;;;;;;1.13;0.70;;;;;;;19.86;31.67;98691.84;5114162;28;20038;-63
2021/12/16 08:23:31;;;;;;;1.52;0.80;;;;;;;19.86;31.55;98691.84;5113424;28;20039;-63
2021/12/16 08:25:57;;;;;;;1.55;0.90;;;;;;;19.87;31.54;98690.84;5114189;28;20076;-63
2021/12/16 08:28:23;;;;;;;1.30;0.80;;;;;;;19.87;31.70;98691.66;5111904;28;20032;-63
2021/12/16 08:30:50;;;;;;;1.38;0.85;;;;;;;19.87;31.65;98685.47;5113753;28;20163;-63
2021/12/16 08:33:17;;;;;;;1.77;0.90;;;;;;;19.86;31.57;98683.78;5113902;28;20063;-63
2021/12/16 08:35:47;;;;;;;1.58;0.52;;;;;;;19.88;31.65;98681.75;5113585;28;20092;-63
2021/12/16 08:38:17;;;;;;;1.50;0.85;;;;;;;19.88;31.54;98684.44;5105511;28;20054;-62
2021/12/16 08:40:44;;;;;;;2.28;0.82;;;;;;;19.88;31.61;98674.53;5093533;28;20032;-63
2021/12/16 08:43:12;;;;;;;6.32;1.05;;;;;;;19.90;31.66;98682.38;5092892;28;20407;-63
2021/12/16 08:45:39;;;;;;;0.98;0.68;;;;;;;19.87;31.65;98680.91;5093321;28;20032;-62
2021/12/16 08:48:05;;;;;;;1.40;0.73;;;;;;;19.88;31.62;98684.44;5092931;28;20375;-64
2021/12/16 08:50:35;;;;;;;1.15;0.60;;;;;;;19.89;31.62;98670.00;5093288;28;20031;-63
2021/12/16 08:53:03;;;;;;;2.38;1.00;;;;;;;19.89;31.56;98680.72;5092905;28;20032;-63
2021/12/16 08:55:32;;;;;;;1.85;0.70;;;;;;;19.88;31.56;98666.47;5092638;28;20121;-63
2021/12/16 08:57:58;;;;;;;1.00;0.82;;;;;;;19.87;31.54;98667.50;5092585;28;20177;-63
2021/12/16 09:00:28;;;;;;;1.17;0.75;;;;;;;19.88;31.52;98673.72;5093058;28;20035;-64
2021/12/16 09:02:54;;;;;;;1.63;0.90;;;;;;;19.86;31.66;98662.31;5092984;28;20050;-63
2021/12/16 09:05:21;;;;;;;2.30;1.02;;;;;;;19.85;31.58;98655.28;5094762;28;20047;-63
2021/12/16 09:07:48;;;;;;;1.88;0.90;;;;;;;19.86;31.80;98648.88;5111170;28;20036;-62
2021/12/16 09:10:22;;;;;;;2.05;1.13;;;;;;;19.88;31.76;98644.19;5092764;28;20038;-63
2021/12/16 09:13:12;;;;;;;1.20;0.80;;;;;;;19.89;31.71;98641.28;5095099;28;20028;-63
2021/12/16 09:15:55;;;;;;;0.82;0.70;;;;;;;19.90;31.87;98637.56;5099826;28;20118;-62
2021/12/16 09:18:25;;;;;;;1.63;0.80;;;;;;;19.91;32.01;98633.03;5096759;28;20032;-63
2021/12/16 09:20:52;;;;;;;1.33;0.80;;;;;;;19.91;31.88;98622.31;5093093;28;20043;-63
2021/12/16 09:23:19;;;;;;;3.53;1.00;;;;;;;19.90;32.13;98634.06;5096016;28;20035;-63
2021/12/16 09:25:47;;;;;;;3.40;0.80;;;;;;;19.90;32.14;98626.00;5092797;28;20027;-63
2021/12/16 09:28:14;;;;;;;3.70;0.93;;;;;;;19.87;32.13;98619.16;5090609;28;20089;-63
2021/12/16 09:30:41;;;;;;;1.40;1.00;;;;;;;19.89;32.04;98619.00;5092078;28;20097;-63
2021/12/16 09:33:14;;;;;;;0.95;0.65;;;;;;;19.88;32.15;98618.16;5095476;28;20378;-62
2021/12/16 09:35:40;;;;;;;1.75;0.80;;;;;;;19.89;32.06;98619.00;5092225;28;20044;-64
2021/12/16 09:38:09;;;;;;;1.40;0.80;;;;;;;19.90;32.26;98623.31;5102373;28;20027;-62
2021/12/16 09:40:44;;;;;;;1.17;0.80;;;;;;;19.89;32.39;98629.72;5099551;28;20390;-61
2021/12/16 09:43:09;;;;;;;1.48;0.82;;;;;;;19.93;32.20;98633.63;5092609;28;20036;-64
2021/12/16 09:45:35;;;;;;;1.10;0.68;;;;;;;19.89;32.21;98621.66;5101614;28;20035;-63
2021/12/16 09:48:00;;;;;;;2.25;0.90;;;;;;;19.91;32.25;98625.00;5102304;28;20027;-63
2021/12/16 09:50:30;;;;;;;5.78;1.10;;;;;;;19.93;32.50;98618.38;5096568;28;20031;-65
2021/12/16 09:52:57;;;;;;;6.55;0.80;;;;;;;20.02;32.72;98612.78;5093687;28;20387;-62
2021/12/16 09:55:23;;;;;;;6.88;1.30;;;;;;;20.09;32.84;98600.22;5098364;28;20039;-62
2021/12/16 09:57:50;;;;;;;3.72;1.67;;;;;;;20.13;32.82;98594.22;5096791;28;20032;-62
2021/12/16 10:00:22;;;;;;;2.83;1.80;;;;;;;20.13;33.00;98583.47;5103032;28;20085;-62
2021/12/16 10:02:52;;;;;;;4.95;2.20;;;;;;;20.13;32.88;98580.78;5098350;28;20145;-64
2021/12/16 10:05:19;;;;;;;8.95;2.58;;;;;;;20.14;33.12;98581.63;5100567;28;20028;-62
2021/12/16 10:07:45;;;;;;;4.88;2.05;;;;;;;20.17;33.08;98578.50;5095107;28;20059;-62
2021/12/16 10:10:16;;;;;;;6.05;2.17;;;;;;;20.20;32.83;98578.09;5097664;28;20435;-62
2021/12/16 10:12:45;;;;;;;3.17;1.58;;;;;;;20.19;32.93;98576.44;5096973;28;20027;-62
2021/12/16 10:18:19;;;;;;;3.65;2.35;;;;;;;20.30;32.38;98568.78;5078379;28;20130;-62
2021/12/16 10:20:48;;;;;;;5.05;2.30;;;;;;;20.42;32.52;98569.84;5095763;28;20078;-62
2021/12/16 10:23:23;;;;;;;4.63;2.00;;;;;;;20.53;32.64;98571.03;5096995;28;20035;-61
2021/12/16 10:26:00;;;;;;;7.25;1.80;;;;;;;20.59;32.62;98559.47;5095092;28;20055;-62
2021/12/16 10:28:33;;;;;;;4.63;2.03;;;;;;;20.66;32.68;98554.88;5112347;28;20032;-61
2021/12/16 10:31:34;;;;;;;6.00;2.35;;;;;;;20.70;32.86;98553.44;5115720;28;20027;-61
2021/12/16 10:34:09;;;;;;;7.97;2.65;;;;;;;20.72;32.94;98554.03;5079095;28;20044;-62
2021/12/16 10:36:42;;;;;;;9.25;3.50;;;;;;;20.71;32.98;98549.69;5097959;28;20032;-58
2021/12/16 10:39:22;;;;;;;8.45;4.07;;;;;;;20.70;33.13;98547.25;5095777;28;20063;-63
2021/12/16 10:41:52;;;;;;;7.30;3.88;;;;;;;20.70;33.21;98548.03;5111455;28;20492;-62
2021/12/16 10:44:27;;;;;;;8.88;4.28;;;;;;;20.70;33.14;98545.38;5115234;28;20062;-62
2021/12/16 10:46:59;;;;;;;9.05;4.97;;;;;;;20.67;33.10;98539.59;5102929;28;20032;-61
2021/12/16 10:49:37;;;;;;;8.40;4.55;;;;;;;20.71;33.02;98547.00;5105492;28;20059;-62
2021/12/16 10:52:32;;;;;;;8.07;5.13;;;;;;;20.75;32.97;98534.00;5094444;28;20070;-62
2021/12/16 10:54:59;;;;;;;25.95;5.75;;;;;;;20.76;33.01;98540.22;5092810;28;20518;-62
2021/12/16 10:57:28;;;;;;;8.75;5.25;;;;;;;20.72;32.95;98527.16;5096613;28;20113;-62
2021/12/16 10:59:57;;;;;;;9.70;4.38;;;;;;;20.70;33.08;98537.28;5106388;28;20039;-59
2021/12/16 11:02:28;;;;;;;9.93;5.28;;;;;;;20.68;33.26;98533.19;5098703;28;20106;-63
2021/12/16 11:04:59;;;;;;;9.60;5.32;;;;;;;20.63;33.09;98516.84;5094621;28;20043;-63
2021/12/16 11:07:25;;;;;;;;;;;;;;;20.53;33.28;98512.75;5094846;28;20032;-64
2021/12/16 11:10:09;;;;;;;14.82;5.47;;;;;;;20.51;33.43;98509.44;5108038;28;19915;-65
2021/12/16 11:12:44;;;;;;;10.52;4.00;;;;;;;20.49;33.43;98502.66;5112602;28;20035;-64
2021/12/16 11:15:25;;;;;;;9.38;4.43;;;;;;;20.47;33.40;98507.41;5095105;28;20043;-63
2021/12/16 11:17:59;;;;;;;7.85;4.40;;;;;;;20.42;33.11;98495.41;5094774;28;20028;-64
2021/12/16 11:20:39;;;;;;;8.68;4.32;;;;;;;20.42;33.20;98497.28;5111387;28;20027;-64
2021/12/16 11:23:07;;;;;;;6.93;3.88;;;;;;;20.40;33.08;98486.72;5110015;28;20024;-64
2021/12/16 11:25:42;;;;;;;12.20;4.00;;;;;;;20.40;33.30;98486.72;5094824;28;20036;-63
2021/12/16 11:28:23;;;;;;;7.88;4.00;;;;;;;20.37;33.11;98479.09;5095845;28;20430;-64
2021/12/16 11:30:51;;;;;;;6.85;3.50;;;;;;;20.35;33.09;98480.34;5094896;28;20050;-64
2021/12/16 11:33:26;;;;;;;9.32;3.38;;;;;;;20.34;33.29;98466.09;5094078;28;20540;-64
2021/12/16 11:35:56;;;;;;;6.10;3.08;;;;;;;20.33;33.01;98472.50;5094563;28;20056;-64
2021/12/16 11:38:59;;;;;;;5.45;3.28;;;;;;;20.32;33.00;98476.22;5093876;28;20044;-63
2021/12/16 11:41:32;;;;;;;6.63;3.53;;;;;;;20.28;33.10;98464.25;5094871;28;20047;-64
2021/12/16 11:44:16;;;;;;;5.75;2.95;;;;;;;20.30;33.12;98474.78;5093739;28;20024;-63
2021/12/16 11:46:49;;;;;;;4.57;2.70;;;;;;;20.29;33.19;98473.97;5093945;28;20031;-62
2021/12/16 11:49:24;;;;;;;4.93;2.30;;;;;;;20.28;33.10;98477.69;5092559;28;20535;-63
2021/12/16 11:51:59;;;;;;;5.82;2.60;;;;;;;20.28;32.89;98472.31;5095544;28;20390;-63
2021/12/16 11:54:25;;;;;;;6.00;2.45;;;;;;;20.26;32.85;98469.84;5093824;28;20069;-63
2021/12/16 11:56:56;;;;;;;6.38;3.30;;;;;;;20.26;32.95;98474.38;5093838;28;20532;-63
2021/12/16 11:59:29;;;;;;;7.25;2.00;;;;;;;20.26;32.89;98479.75;5094490;28;20089;-62
2021/12/16 12:01:56;;;;;;;5.82;3.30;;;;;;;20.25;32.92;98475.41;5093770;28;20040;-64
2021/12/16 12:04:32;;;;;;;5.18;2.42;;;;;;;20.25;32.83;98473.56;5107952;28;20035;-62
2021/12/16 12:06:58;;;;;;;5.65;2.28;;;;;;;20.24;32.99;98479.13;5114165;28;20171;-63
2021/12/16 12:09:40;;;;;;;4.15;2.08;;;;;;;20.24;32.78;98471.91;5113516;28;20042;-63
2021/12/16 12:12:07;;;;;;;3.83;1.80;;;;;;;20.24;32.69;98476.44;5114369;28;20035;-62
2021/12/16 12:14:35;;;;;;;4.95;1.90;;;;;;;20.24;32.83;98471.91;5093737;28;20488;-62
2021/12/16 12:17:19;;;;;;;3.92;1.90;;;;;;;20.22;32.90;98473.16;5093975;28;20119;-64
2021/12/16 12:19:51;;;;;;;2.90;1.50;;;;;;;20.23;32.67;98467.56;5103573;28;20042;-64
2021/12/16 12:22:23;;;;;;;5.40;2.13;;;;;;;20.22;32.78;98467.78;5113788;28;20088;-64
2021/12/16 12:24:49;;;;;;;4.40;1.88;;;;;;;20.21;32.73;98464.25;5113107;28;20032;-64
2021/12/16 12:27:25;;;;;;;3.63;1.77;;;;;;;20.22;32.67;98465.91;5113742;28;20035;-64
2021/12/16 12:30:05;;;;;;;3.20;1.48;;;;;;;20.20;32.74;98464.50;5113946;28;20043;-64
2021/12/16 12:32:37;;;;;;;3.50;2.15;;;;;;;20.19;32.85;98469.00;5113351;28;20036;-62
2021/12/16 12:35:21;;;;;;;3.90;1.58;;;;;;;20.17;32.93;98456.84;5094524;28;20056;-64
2021/12/16 12:37:51;;;;;;;3.47;2.00;;;;;;;20.16;32.63;98447.13;5092915;28;20394;-64
2021/12/16 12:40:32;;;;;;;3.47;1.30;;;;;;;20.17;32.73;98441.53;5093733;28;20067;-64
2021/12/16 12:42:58;;;;;;;3.80;1.40;;;;;;;20.16;32.71;98433.72;5095621;28;20035;-64
2021/12/16 12:45:29;;;;;;;3.83;1.50;;;;;;;20.16;32.66;98428.34;5113726;28;20035;-63
2021/12/16 12:47:57;;;;;;;3.90;1.50;;;;;;;20.14;32.75;98425.88;5113634;28;20035;-64
2021/12/16 12:50:51;;;;;;;2.05;1.35;;;;;;;20.15;32.63;98442.78;5113870;28;20423;-64
2021/12/16 12:53:21;;;;;;;2.42;1.30;;;;;;;20.12;32.87;98431.44;5103431;28;20418;-64
2021/12/16 12:55:49;;;;;;;3.08;1.35;;;;;;;20.12;32.64;98430.63;5092707;28;20036;-63
2021/12/16 12:58:22;;;;;;;1.77;1.20;;;;;;;20.13;32.86;98429.59;5104635;28;20043;-64
2021/12/16 13:01:00;;;;;;;2.15;1.23;;;;;;;20.12;32.54;98422.56;5113496;28;20091;-64
2021/12/16 13:03:38;;;;;;;1.85;1.30;;;;;;;20.12;32.62;98417.19;5112788;28;20038;-64
2021/12/16 13:06:18;;;;;;;2.13;1.23;;;;;;;20.12;32.81;98414.50;5113553;28;20398;-64
2021/12/16 13:08:47;;;;;;;2.20;1.20;;;;;;;20.11;32.58;98412.84;5113039;28;20032;-62
2021/12/16 13:11:19;;;;;;;2.00;1.33;;;;;;;20.12;32.67;98415.31;5113639;28;20108;-64
2021/12/16 13:14:16;;;;;;;3.65;1.50;;;;;;;20.11;32.63;98413.66;5112465;28;20045;-64
2021/12/16 13:28:47;;;;;;;3.05;1.45;;;;;;;20.09;32.54;98407.69;5092027;28;20513;-64
2021/12/16 13:31:38;;;;;;;1.75;0.95;;;;;;;20.08;32.76;98407.91;5092323;28;20036;-64
2021/12/16 13:34:04;;;;;;;2.35;1.35;;;;;;;20.08;32.69;98405.22;5091638;28;20032;-64
2021/12/16 13:36:48;;;;;;;1.60;1.00;;;;;;;20.07;32.73;98404.38;5091948;28;20054;-64
2021/12/16 13:39:21;;;;;;;1.50;0.88;;;;;;;20.06;32.52;98396.53;5092463;28;20035;-64
2021/12/16 13:41:52;;;;;;;1.13;0.93;;;;;;;20.05;32.49;98394.91;5092223;28;20111;-64
2021/12/16 13:44:18;;;;;;;2.10;0.90;;;;;;;20.05;32.63;98390.38;5092022;28;20085;-64
2021/12/16 13:47:13;;;;;;;1.85;0.98;;;;;;;20.05;32.53;98390.38;5097527;28;20031;-64
2021/12/16 14:00:02;;;;;;;1.30;0.80;;;;;;;20.00;32.49;98376.75;5092080;28;20047;-64
2021/12/16 14:02:04;;;;;;;1.17;0.70;;;;;;;20.02;32.62;98379.19;5091503;28;20044;-63
2021/12/16 14:10:29;;;;;;;2.17;0.82;;;;;;;20.00;32.60;98357.94;5091838;28;20039;-63
2021/12/16 14:46:44;;;;;;;2.15;0.93;;;;;;;19.99;32.63;98307.16;5095747;28;20039;-64
2021/12/16 14:49:10;;;;;;;1.45;1.00;;;;;;;19.99;32.48;98315.22;5095323;28;20059;-64
2021/12/16 14:51:36;;;;;;;1.63;0.88;;;;;;;20.00;32.40;98312.31;5095161;28;20039;-64
2021/12/16 14:54:01;;;;;;;2.72;1.20;;;;;;;19.99;32.52;98316.03;5095172;28;20035;-63
2021/12/16 14:56:30;;;;;;;2.00;1.02;;;;;;;20.02;32.58;98320.13;5094979;28;20059;-64
2021/12/16 14:59:01;;;;;;;2.67;1.48;;;;;;;20.00;32.40;98312.31;5097809;28;20515;-64
2021/12/16 15:01:34;;;;;;;1.52;0.93;;;;;;;20.02;32.66;98318.28;5115814;28;20038;-64
2021/12/16 15:04:01;;;;;;;1.67;1.05;;;;;;;20.02;32.49;98312.06;5115364;28;20034;-64
2021/12/16 15:06:40;;;;;;;1.98;0.90;;;;;;;20.01;32.42;98310.44;5115350;28;20451;-64
2021/12/16 15:09:15;;;;;;;1.85;1.00;;;;;;;20.01;32.49;98300.53;5110872;28;20390;-64
2021/12/16 15:44:11;;;;;;;3.95;1.65;;;;;;;19.98;32.37;98300.94;5115200;28;20038;-63
2021/12/16 15:46:38;;;;;;;2.65;1.58;;;;;;;19.99;32.35;98299.91;5114494;28;20035;-62
2021/12/16 15:49:04;;;;;;;2.13;1.17;;;;;;;19.98;32.47;98295.56;5096510;28;20031;-63
2021/12/16 15:51:30;;;;;;;4.07;1.70;;;;;;;19.98;31.97;98295.56;5114339;28;20035;-63
2021/12/16 15:53:59;;;;;;;3.17;1.45;;;;;;;19.97;32.50;98299.28;5113757;28;20036;-63
2021/12/16 15:56:30;;;;;;;2.58;1.35;;;;;;;19.98;32.37;98295.56;5099502;28;20078;-63
2021/12/16 15:59:04;;;;;;;1.95;1.15;;;;;;;19.97;32.38;98294.75;5096105;28;20036;-64
2021/12/16 16:01:38;;;;;;;2.47;1.50;;;;;;;19.97;32.43;98289.41;5094397;28;20557;-63
2021/12/16 16:04:11;;;;;;;3.42;1.67;;;;;;;19.97;32.24;98285.88;5093732;28;20028;-64
2021/12/16 16:06:42;;;;;;;3.63;1.40;;;;;;;19.96;32.19;98281.53;5093960;28;20522;-63
2021/12/16 16:09:10;;;;;;;1.90;1.30;;;;;;;19.97;32.25;98283.19;5093509;28;20043;-63
2021/12/16 16:11:44;;;;;;;2.40;1.38;;;;;;;19.99;32.35;98277.63;5093846;28;20043;-63
2021/12/16 16:14:10;;;;;;;2.90;1.73;;;;;;;19.97;32.36;98275.13;5093687;28;20035;-63
2021/12/16 16:16:45;;;;;;;3.05;2.00;;;;;;;19.98;32.13;98276.78;5093721;28;20028;-63
2021/12/16 16:19:15;;;;;;;2.50;1.50;;;;;;;19.99;32.16;98281.13;5099242;28;20027;-62
2021/12/16 16:21:47;;;;;;;2.30;1.20;;;;;;;19.98;32.41;98271.41;5113839;28;20042;-62
2021/12/16 16:24:18;;;;;;;3.10;1.65;;;;;;;20.00;32.34;98273.91;5113259;28;20574;-62
2021/12/16 16:26:45;;;;;;;3.20;1.33;;;;;;;19.99;32.39;98278.44;5114285;28;20023;-62
2021/12/16 16:29:18;;;;;;;2.22;1.38;;;;;;;19.99;32.34;98274.94;5105514;28;20038;-62